Time;durP1;ratioP1;P1;durP2;ratioP2;P2;SDS_P1;SDS_P2;PMS_P1;PMS_P2;Temp;Humidity;BMP_temperature;BMP_pressure;BME280_temperature;BME280_humidity;BME280_pressure;Samples;Min_cycle;Max_cycle;Signal;HPM_P1;HPM_P2
2023/04/29 00:00:37;;;;;;;;;;;9.40;99.90;;;;;;5012953;28;19948;-70
2023/04/29 00:03:03;;;;;;;;;;;9.40;99.90;;;;;;5017542;28;19921;-69
2023/04/29 00:05:28;;;;;;;;;;;9.40;99.90;;;;;;5011483;28;20048;-69
2023/04/29 00:07:54;;;;;;;;;;;9.40;99.90;;;;;;5012929;28;19920;-69
2023/04/29 00:10:19;;;;;;;;;;;9.40;99.90;;;;;;5013813;28;19921;-69
2023/04/29 00:12:45;;;;;;;;;;;9.40;99.90;;;;;;5017476;28;19921;-71
2023/04/29 00:15:11;;;;;;;;;;;9.40;99.90;;;;;;5016796;28;20278;-72
2023/04/29 00:17:36;;;;;;;;;;;9.40;99.90;;;;;;5019220;28;19912;-70
2023/04/29 00:20:02;;;;;;;;;;;9.40;99.90;;;;;;5017486;28;19949;-70
2023/04/29 00:22:28;;;;;;;;;;;9.40;99.90;;;;;;5018499;28;19917;-70
2023/04/29 00:24:53;;;;;;;;;;;9.40;99.90;;;;;;5018494;28;19916;-69
2023/04/29 00:27:19;;;;;;;;;;;9.30;99.90;;;;;;5018596;28;19971;-71
2023/04/29 00:29:44;;;;;;;;;;;9.30;99.90;;;;;;5019422;28;20380;-70
2023/04/29 00:32:10;;;;;;;;;;;9.30;99.90;;;;;;5015213;28;20125;-69
2023/04/29 00:34:36;;;;;;;;;;;9.40;99.90;;;;;;5021846;28;19952;-69
2023/04/29 00:37:01;;;;;;;;;;;9.40;99.90;;;;;;5015262;28;19917;-69
2023/04/29 00:39:27;;;;;;;;;;;9.40;99.90;;;;;;5016719;28;20011;-69
2023/04/29 00:41:52;;;;;;;;;;;9.40;99.90;;;;;;5010115;28;19909;-69
2023/04/29 00:44:18;;;;;;;;;;;9.40;99.90;;;;;;5017393;28;19964;-69
2023/04/29 00:46:44;;;;;;;;;;;9.40;99.90;;;;;;5017429;28;19908;-69
2023/04/29 00:49:11;;;;;;;;;;;9.30;99.90;;;;;;5016912;28;19914;-70
2023/04/29 00:51:37;;;;;;;;;;;9.30;99.90;;;;;;5017226;28;19960;-71
2023/04/29 00:54:03;;;;;;;;;;;9.30;99.90;;;;;;5016984;28;19909;-69
2023/04/29 00:56:30;;;;;;;;;;;9.30;99.90;;;;;;5015052;28;20012;-70
2023/04/29 00:58:56;;;;;;;;;;;9.20;99.90;;;;;;5017205;28;19909;-70
2023/04/29 01:01:22;;;;;;;;;;;9.20;99.90;;;;;;5018762;28;19998;-69
2023/04/29 01:03:47;;;;;;;;;;;9.20;99.90;;;;;;5018468;28;19955;-70
2023/04/29 01:06:34;;;;;;;;;;;9.10;99.90;;;;;;5015081;28;19925;-69
2023/04/29 01:09:12;;;;;;;;;;;9.20;99.90;;;;;;5015331;28;19913;-69
2023/04/29 01:11:56;;;;;;;;;;;9.20;99.90;;;;;;5015429;28;20118;-69
2023/04/29 01:14:22;;;;;;;;;;;9.20;99.90;;;;;;5018386;28;20224;-70
2023/04/29 01:16:52;;;;;;;;;;;9.10;99.90;;;;;;5019599;28;19948;-69
2023/04/29 01:19:36;;;;;;;;;;;9.10;99.90;;;;;;5018271;28;19905;-70
2023/04/29 01:22:01;;;;;;;;;;;9.00;99.90;;;;;;5014671;28;19917;-70
2023/04/29 01:24:27;;;;;;;;;;;9.00;99.90;;;;;;5017326;28;20043;-71
2023/04/29 01:27:09;;;;;;;;;;;9.00;99.90;;;;;;5015653;28;19960;-71
2023/04/29 01:29:44;;;;;;;;;;;9.10;99.90;;;;;;5016786;28;19919;-69
2023/04/29 01:32:14;;;;;;;;;;;9.10;99.90;;;;;;5014866;28;19917;-70
2023/04/29 01:34:39;;;;;;;;;;;9.00;99.90;;;;;;5018070;28;19928;-70
2023/04/29 01:37:09;;;;;;;;;;;9.00;99.90;;;;;;5018056;28;19913;-69
2023/04/29 01:39:34;;;;;;;;;;;9.10;99.90;;;;;;5017257;28;19932;-70
2023/04/29 01:42:15;;;;;;;;;;;9.20;99.90;;;;;;5018858;28;19909;-70
2023/04/29 01:44:41;;;;;;;;;;;9.10;99.90;;;;;;5013765;28;19961;-72
2023/04/29 01:47:09;;;;;;;;;;;9.10;99.90;;;;;;5012835;28;19963;-70
2023/04/29 01:49:36;;;;;;;;;;;9.10;99.90;;;;;;5016944;28;19956;-70
2023/04/29 01:52:02;;;;;;;;;;;9.10;99.90;;;;;;5014683;28;19924;-69
2023/04/29 01:54:27;;;;;;;;;;;9.00;99.90;;;;;;5019302;28;19913;-70
2023/04/29 01:56:53;;;;;;;;;;;9.00;99.90;;;;;;5017293;28;20320;-69
2023/04/29 01:59:20;;;;;;;;;;;9.10;99.90;;;;;;5015749;28;19909;-69
2023/04/29 02:01:45;;;;;;;;;;;9.10;99.90;;;;;;5048624;28;20447;-69
2023/04/29 02:04:11;;;;;;;;;;;9.00;99.90;;;;;;5001041;28;20081;-71
2023/04/29 02:06:37;;;;;;;;;;;9.10;99.90;;;;;;5017975;28;19917;-69
2023/04/29 02:09:03;;;;;;;;;;;9.10;99.90;;;;;;5014880;28;19913;-70
2023/04/29 02:11:28;;;;;;;;;;;9.10;99.90;;;;;;5016470;28;19913;-70
2023/04/29 02:13:54;;;;;;;;;;;9.10;99.90;;;;;;5016478;28;19921;-70
2023/04/29 02:16:20;;;;;;;;;;;9.10;99.90;;;;;;5015225;28;20375;-70
2023/04/29 02:18:45;;;;;;;;;;;9.10;99.90;;;;;;5015684;28;20009;-70
2023/04/29 02:21:11;;;;;;;;;;;9.10;99.90;;;;;;5016065;28;19920;-70
2023/04/29 02:23:36;;;;;;;;;;;9.10;99.90;;;;;;5014822;28;19979;-69
2023/04/29 02:26:05;;;;;;;;;;;9.10;99.90;;;;;;5019411;28;19912;-69
2023/04/29 02:28:31;;;;;;;;;;;9.10;99.90;;;;;;5016208;28;19955;-69
2023/04/29 02:30:56;;;;;;;;;;;9.10;99.90;;;;;;5014460;28;20007;-69
2023/04/29 02:33:22;;;;;;;;;;;9.10;99.90;;;;;;5016010;28;19913;-69
2023/04/29 02:35:48;;;;;;;;;;;9.10;99.90;;;;;;5012982;28;19924;-70
2023/04/29 02:38:13;;;;;;;;;;;9.10;99.90;;;;;;5016711;28;19960;-70
2023/04/29 02:40:42;;;;;;;;;;;9.10;99.90;;;;;;5019138;28;20293;-70
2023/04/29 02:43:08;;;;;;;;;;;9.10;99.90;;;;;;5016084;28;19909;-69
2023/04/29 02:45:34;;;;;;;;;;;9.10;99.90;;;;;;5016158;28;19925;-70
2023/04/29 02:48:00;;;;;;;;;;;9.10;99.90;;;;;;5013070;28;19913;-71
2023/04/29 02:50:26;;;;;;;;;;;9.10;99.90;;;;;;5014675;28;19955;-71
2023/04/29 02:52:51;;;;;;;;;;;9.10;99.90;;;;;;5014048;28;19917;-70
2023/04/29 02:55:17;;;;;;;;;;;9.10;99.90;;;;;;5014378;28;20055;-70
2023/04/29 02:57:43;;;;;;;;;;;9.10;99.90;;;;;;5013617;28;19921;-70
2023/04/29 03:00:09;;;;;;;;;;;9.10;99.90;;;;;;5012676;28;20006;-70
2023/04/29 03:02:34;;;;;;;;;;;9.00;99.90;;;;;;5013153;28;20424;-71
2023/04/29 03:05:00;;;;;;;;;;;9.00;99.90;;;;;;5017119;28;19913;-70
2023/04/29 03:07:27;;;;;;;;;;;9.10;99.90;;;;;;5013990;28;19959;-69
2023/04/29 03:09:53;;;;;;;;;;;9.00;99.90;;;;;;5013894;28;20484;-70
2023/04/29 03:12:19;;;;;;;;;;;9.10;99.90;;;;;;5015409;28;19924;-70
2023/04/29 03:14:45;;;;;;;;;;;9.00;99.90;;;;;;5017506;28;19939;-71
2023/04/29 03:17:10;;;;;;;;;;;9.00;99.90;;;;;;5015655;28;19914;-70
2023/04/29 03:19:36;;;;;;;;;;;9.00;99.90;;;;;;5017602;28;20333;-70
2023/04/29 03:22:02;;;;;;;;;;;9.00;99.90;;;;;;5016714;28;19920;-70
2023/04/29 03:24:27;;;;;;;;;;;8.90;99.90;;;;;;5013826;28;19935;-70
2023/04/29 03:26:53;;;;;;;;;;;9.00;99.90;;;;;;5015457;28;19913;-72
2023/04/29 03:29:19;;;;;;;;;;;8.90;99.90;;;;;;5016194;28;19915;-71
2023/04/29 03:31:45;;;;;;;;;;;8.90;99.90;;;;;;5018214;28;19912;-70
2023/04/29 03:34:13;;;;;;;;;;;8.90;99.90;;;;;;5019609;28;19913;-70
2023/04/29 03:36:39;;;;;;;;;;;8.90;99.90;;;;;;5015368;28;19913;-70
2023/04/29 03:39:04;;;;;;;;;;;8.90;99.90;;;;;;5013948;28;19909;-70
2023/04/29 03:41:30;;;;;;;;;;;8.80;99.90;;;;;;5016330;28;20361;-71
2023/04/29 03:43:59;;;;;;;;;;;8.80;99.90;;;;;;5017798;28;20360;-71
2023/04/29 03:46:28;;;;;;;;;;;8.80;99.90;;;;;;5016172;28;20272;-70
2023/04/29 03:48:56;;;;;;;;;;;8.90;99.90;;;;;;5017569;28;19913;-70
2023/04/29 03:51:25;;;;;;;;;;;8.90;99.90;;;;;;5015288;28;20329;-70
2023/04/29 03:53:51;;;;;;;;;;;8.80;99.90;;;;;;5021629;28;19952;-69
2023/04/29 03:56:17;;;;;;;;;;;8.90;99.90;;;;;;5000387;28;19917;-70
2023/04/29 03:58:42;;;;;;;;;;;8.90;99.90;;;;;;5019904;28;20283;-69
2023/04/29 04:01:08;;;;;;;;;;;8.90;99.90;;;;;;5019760;28;19956;-70
2023/04/29 04:03:34;;;;;;;;;;;8.90;99.90;;;;;;5040837;28;19952;-71
2023/04/29 04:06:00;;;;;;;;;;;8.90;99.90;;;;;;5016610;28;19909;-69
2023/04/29 04:08:25;;;;;;;;;;;8.90;99.90;;;;;;5020213;28;19921;-71
2023/04/29 04:10:51;;;;;;;;;;;8.80;99.90;;;;;;5020721;28;19949;-69
2023/04/29 04:13:17;;;;;;;;;;;8.80;99.90;;;;;;5021309;28;19928;-71
2023/04/29 04:15:48;;;;;;;;;;;8.80;99.90;;;;;;5017581;28;20016;-69
2023/04/29 04:18:13;;;;;;;;;;;8.80;99.90;;;;;;5022837;28;19909;-71
2023/04/29 04:20:39;;;;;;;;;;;8.80;99.90;;;;;;5019238;28;20483;-70
2023/04/29 04:23:05;;;;;;;;;;;8.80;99.90;;;;;;5039410;28;19913;-70
2023/04/29 04:25:30;;;;;;;;;;;8.80;99.90;;;;;;5017366;28;19917;-70
2023/04/29 04:27:56;;;;;;;;;;;8.90;99.90;;;;;;5019210;28;19969;-69
2023/04/29 04:30:23;;;;;;;;;;;8.80;99.90;;;;;;5016592;28;19918;-69
2023/04/29 04:32:48;;;;;;;;;;;8.80;99.90;;;;;;5025486;28;19913;-71
2023/04/29 04:35:14;;;;;;;;;;;8.70;99.90;;;;;;5022558;28;19921;-71
2023/04/29 04:37:39;;;;;;;;;;;8.70;99.90;;;;;;5014482;28;19920;-72
2023/04/29 04:40:06;;;;;;;;;;;8.70;99.90;;;;;;5017414;28;19988;-70
2023/04/29 04:42:31;;;;;;;;;;;8.70;99.90;;;;;;5018769;28;19909;-71
2023/04/29 04:44:57;;;;;;;;;;;8.80;99.90;;;;;;5018832;28;19924;-71
2023/04/29 04:47:22;;;;;;;;;;;8.80;99.90;;;;;;5018879;28;20395;-70
2023/04/29 04:49:54;;;;;;;;;;;8.80;99.90;;;;;;5021410;28;19914;-69
2023/04/29 04:52:20;;;;;;;;;;;8.80;99.90;;;;;;5017660;28;20280;-70
2023/04/29 04:54:46;;;;;;;;;;;8.80;99.90;;;;;;5022320;28;19917;-69
2023/04/29 04:57:11;;;;;;;;;;;8.80;99.90;;;;;;5016702;28;19996;-70
2023/04/29 04:59:37;;;;;;;;;;;8.80;99.90;;;;;;5018121;28;19955;-72
2023/04/29 05:02:03;;;;;;;;;;;8.80;99.90;;;;;;5018340;28;19928;-70
2023/04/29 05:04:28;;;;;;;;;;;8.80;99.90;;;;;;5015851;28;19919;-69
2023/04/29 05:06:54;;;;;;;;;;;8.80;99.90;;;;;;5019203;28;19913;-70
2023/04/29 05:09:19;;;;;;;;;;;8.80;99.90;;;;;;5017931;28;19909;-69
2023/04/29 05:11:45;;;;;;;;;;;8.80;99.90;;;;;;5012564;28;20308;-69
2023/04/29 05:14:11;;;;;;;;;;;8.80;99.90;;;;;;5021546;28;19950;-69
2023/04/29 05:16:37;;;;;;;;;;;8.80;99.90;;;;;;5016270;28;20282;-70
2023/04/29 05:19:03;;;;;;;;;;;9.10;99.90;;;;;;5018947;28;19914;-69
2023/04/29 05:21:30;;;;;;;;;;;9.00;99.90;;;;;;5019053;28;19909;-71
2023/04/29 05:23:56;;;;;;;;;;;9.00;99.90;;;;;;5023033;28;20115;-69
2023/04/29 05:26:22;;;;;;;;;;;9.00;99.90;;;;;;4997883;28;19920;-69
2023/04/29 05:28:47;;;;;;;;;;;9.00;99.90;;;;;;5019415;28;19914;-70
2023/04/29 05:31:13;;;;;;;;;;;9.00;99.90;;;;;;5020218;28;19917;-70
2023/04/29 05:33:39;;;;;;;;;;;9.00;99.90;;;;;;5021158;28;19996;-70
2023/04/29 05:36:05;;;;;;;;;;;9.00;99.90;;;;;;5016373;28;19921;-70
2023/04/29 05:38:31;;;;;;;;;;;9.10;99.90;;;;;;5018382;28;20290;-70
2023/04/29 05:40:57;;;;;;;;;;;9.10;99.90;;;;;;5016443;28;20233;-70
2023/04/29 05:43:22;;;;;;;;;;;9.10;99.90;;;;;;5018592;28;19983;-71
2023/04/29 05:45:48;;;;;;;;;;;9.10;99.90;;;;;;5013174;28;19913;-70
2023/04/29 05:48:14;;;;;;;;;;;9.10;99.90;;;;;;5019542;28;19913;-71
2023/04/29 05:50:39;;;;;;;;;;;9.10;99.90;;;;;;5015931;28;19916;-70
2023/04/29 05:53:05;;;;;;;;;;;9.10;99.90;;;;;;5014606;28;19942;-72
2023/04/29 05:55:31;;;;;;;;;;;9.10;99.90;;;;;;5035499;28;20384;-69
2023/04/29 05:57:56;;;;;;;;;;;9.20;99.90;;;;;;5016075;28;19958;-70
2023/04/29 06:00:22;;;;;;;;;;;9.10;99.90;;;;;;5000555;28;20452;-69
2023/04/29 06:02:48;;;;;;;;;;;9.10;99.90;;;;;;5018305;28;20435;-70
2023/04/29 06:05:14;;;;;;;;;;;9.10;99.90;;;;;;5018407;28;20319;-70
2023/04/29 06:07:40;;;;;;;;;;;9.10;99.90;;;;;;5017425;28;19908;-73
2023/04/29 06:10:07;;;;;;;;;;;9.10;99.90;;;;;;5015559;28;20335;-70
2023/04/29 06:12:32;;;;;;;;;;;9.10;99.90;;;;;;5018236;28;19924;-71
2023/04/29 06:14:58;;;;;;;;;;;9.20;99.90;;;;;;5019660;28;20285;-71
2023/04/29 06:17:23;;;;;;;;;;;9.20;99.90;;;;;;5015493;28;19960;-70
2023/04/29 06:19:49;;;;;;;;;;;9.30;99.90;;;;;;5016527;28;19920;-70
2023/04/29 06:22:15;;;;;;;;;;;9.30;99.90;;;;;;5017160;28;19928;-70
2023/04/29 06:24:40;;;;;;;;;;;9.40;99.90;;;;;;5019681;28;19989;-71
2023/04/29 06:27:06;;;;;;;;;;;9.30;99.90;;;;;;5045069;28;20052;-70
2023/04/29 06:29:31;;;;;;;;;;;9.30;99.90;;;;;;5019869;28;20592;-71
2023/04/29 06:31:57;;;;;;;;;;;9.30;99.90;;;;;;5016558;28;19928;-71
2023/04/29 06:34:23;;;;;;;;;;;9.40;99.90;;;;;;5019497;28;19905;-71
2023/04/29 06:36:48;;;;;;;;;;;9.40;99.90;;;;;;5014798;28;19912;-70
2023/04/29 06:39:14;;;;;;;;;;;9.40;99.90;;;;;;5015949;28;19943;-70
2023/04/29 06:41:40;;;;;;;;;;;9.40;99.90;;;;;;5018385;28;19916;-70
2023/04/29 06:44:05;;;;;;;;;;;9.40;99.90;;;;;;5015664;28;19952;-71
2023/04/29 06:46:31;;;;;;;;;;;9.40;99.90;;;;;;5016593;28;19988;-71
2023/04/29 06:48:56;;;;;;;;;;;9.40;99.90;;;;;;5016582;28;19905;-70
2023/04/29 06:51:23;;;;;;;;;;;9.50;99.90;;;;;;5015642;28;19955;-71
2023/04/29 06:53:49;;;;;;;;;;;9.50;99.90;;;;;;5012878;28;20279;-70
2023/04/29 06:56:15;;;;;;;;;;;9.60;99.90;;;;;;5016163;28;19920;-71
2023/04/29 06:58:40;;;;;;;;;;;9.60;99.90;;;;;;5017213;28;19956;-71
2023/04/29 07:01:07;;;;;;;;;;;9.70;99.90;;;;;;5013781;28;19993;-69
2023/04/29 07:03:33;;;;;;;;;;;9.70;99.90;;;;;;5010579;28;19914;-71
2023/04/29 07:05:58;;;;;;;;;;;9.70;99.90;;;;;;5018048;28;20363;-72
2023/04/29 07:08:24;;;;;;;;;;;9.80;99.90;;;;;;5017201;28;19915;-70
2023/04/29 07:10:56;;;;;;;;;;;9.80;99.90;;;;;;5007488;28;19959;-70
2023/04/29 07:13:22;;;;;;;;;;;9.80;99.90;;;;;;5015047;28;20011;-70
2023/04/29 07:15:47;;;;;;;;;;;9.80;99.90;;;;;;5012692;28;19983;-71
2023/04/29 07:18:13;;;;;;;;;;;9.90;99.90;;;;;;5015294;28;20472;-70
2023/04/29 07:20:38;;;;;;;;;;;9.90;99.90;;;;;;5011829;28;20003;-70
2023/04/29 07:23:04;;;;;;;;;;;9.90;99.90;;;;;;5017218;28;20305;-70
2023/04/29 07:25:30;;;;;;;;;;;10.00;99.90;;;;;;5005234;28;19948;-71
2023/04/29 07:27:55;;;;;;;;;;;10.10;99.90;;;;;;5010143;28;19913;-73
2023/04/29 07:30:22;;;;;;;;;;;10.10;99.90;;;;;;5003821;28;19917;-73
2023/04/29 07:32:47;;;;;;;;;;;10.10;99.90;;;;;;5013102;28;19921;-74
2023/04/29 07:35:13;;;;;;;;;;;10.20;99.90;;;;;;5009773;28;19921;-72
2023/04/29 07:37:40;;;;;;;;;;;10.20;99.90;;;;;;5011461;28;19913;-73
2023/04/29 07:40:06;;;;;;;;;;;10.20;99.90;;;;;;5003477;28;19909;-73
2023/04/29 07:42:31;;;;;;;;;;;10.30;99.90;;;;;;5008528;28;20364;-72
2023/04/29 07:44:57;;;;;;;;;;;10.40;99.90;;;;;;4997718;28;20004;-73
2023/04/29 07:47:26;;;;;;;;;;;10.40;99.90;;;;;;5016613;28;19909;-73
2023/04/29 07:49:51;;;;;;;;;;;10.40;99.90;;;;;;5015097;28;19924;-73
2023/04/29 07:52:17;;;;;;;;;;;10.60;99.90;;;;;;5044377;28;19960;-75
2023/04/29 07:54:43;;;;;;;;;;;10.60;99.90;;;;;;5013246;28;20006;-72
2023/04/29 07:57:08;;;;;;;;;;;10.60;99.90;;;;;;5016413;28;19923;-73
2023/04/29 07:59:34;;;;;;;;;;;10.60;99.90;;;;;;5011301;28;20290;-73
2023/04/29 08:01:59;;;;;;;;;;;10.60;99.90;;;;;;5012142;28;19913;-73
2023/04/29 08:04:25;;;;;;;;;;;10.70;99.90;;;;;;4996171;28;19920;-71
2023/04/29 08:06:50;;;;;;;;;;;10.70;99.90;;;;;;5014497;28;20302;-71
2023/04/29 08:09:16;;;;;;;;;;;10.80;99.90;;;;;;5012079;28;19913;-70
2023/04/29 08:11:42;;;;;;;;;;;10.90;99.90;;;;;;5014447;28;19929;-72
2023/04/29 08:14:07;;;;;;;;;;;11.00;99.90;;;;;;5012918;28;20005;-69
2023/04/29 08:16:33;;;;;;;;;;;11.00;99.90;;;;;;5010800;28;20382;-69
2023/04/29 08:18:59;;;;;;;;;;;11.00;99.90;;;;;;5019222;28;19909;-71
2023/04/29 08:21:24;;;;;;;;;;;10.90;99.90;;;;;;5010690;28;19913;-71
2023/04/29 08:23:50;;;;;;;;;;;10.90;99.90;;;;;;5006931;28;20031;-69
2023/04/29 08:26:15;;;;;;;;;;;10.90;99.90;;;;;;5005915;28;19912;-70
2023/04/29 08:28:41;;;;;;;;;;;10.90;99.90;;;;;;5012552;28;19920;-72
2023/04/29 08:31:09;;;;;;;;;;;10.90;99.90;;;;;;5011453;28;19960;-72
2023/04/29 08:33:36;;;;;;;;;;;11.00;99.90;;;;;;5014306;28;19994;-71
2023/04/29 08:36:04;;;;;;;;;;;11.00;99.90;;;;;;5015230;28;20266;-71
2023/04/29 08:38:30;;;;;;;;;;;11.10;99.90;;;;;;5016473;28;20788;-71
2023/04/29 08:40:56;;;;;;;;;;;11.10;99.90;;;;;;5021076;28;19923;-71
2023/04/29 08:43:22;;;;;;;;;;;11.20;99.90;;;;;;5017962;28;19913;-74
2023/04/29 08:45:48;;;;;;;;;;;11.10;99.90;;;;;;5013352;28;20004;-71
2023/04/29 08:48:15;;;;;;;;;;;11.10;99.90;;;;;;5014544;28;19925;-74
2023/04/29 08:50:41;;;;;;;;;;;11.40;99.90;;;;;;5014402;28;19913;-69
2023/04/29 08:53:07;;;;;;;;;;;11.30;99.90;;;;;;5006760;28;19933;-73
2023/04/29 08:55:39;;;;;;;;;;;11.30;99.90;;;;;;5011623;28;19913;-71
2023/04/29 08:58:05;;;;;;;;;;;11.30;99.90;;;;;;5012938;28;19939;-71
2023/04/29 09:00:31;;;;;;;;;;;11.40;99.90;;;;;;5017417;28;19947;-72
2023/04/29 09:02:58;;;;;;;;;;;11.40;99.90;;;;;;5016316;28;19917;-71
2023/04/29 09:05:25;;;;;;;;;;;11.50;99.90;;;;;;5015511;28;20076;-71
2023/04/29 09:07:51;;;;;;;;;;;11.50;99.90;;;;;;5014903;28;19964;-71
2023/04/29 09:10:17;;;;;;;;;;;11.60;99.90;;;;;;5016568;28;20520;-71
2023/04/29 09:12:43;;;;;;;;;;;11.70;99.90;;;;;;5019316;28;19979;-71
2023/04/29 09:15:09;;;;;;;;;;;11.70;99.90;;;;;;5014401;28;19920;-72
2023/04/29 09:17:45;;;;;;;;;;;11.70;99.90;;;;;;5021736;28;19984;-70
2023/04/29 09:20:20;;;;;;;;;;;11.70;99.90;;;;;;5019435;28;20003;-71
2023/04/29 09:22:52;;;;;;;;;;;11.80;99.90;;;;;;5012305;28;20399;-72
2023/04/29 09:25:18;;;;;;;;;;;11.80;99.90;;;;;;5012941;28;20347;-71
2023/04/29 09:27:43;;;;;;;;;;;11.90;99.90;;;;;;5015107;28;20012;-73
2023/04/29 09:30:09;;;;;;;;;;;11.90;99.90;;;;;;5012851;28;19909;-72
2023/04/29 09:32:35;;;;;;;;;;;11.90;99.90;;;;;;5016810;28;19917;-73
2023/04/29 09:35:24;;;;;;;;;;;12.00;99.90;;;;;;5013797;28;19920;-70
2023/04/29 09:37:52;;;;;;;;;;;12.10;99.90;;;;;;5000445;28;19918;-69
2023/04/29 09:40:32;;;;;;;;;;;12.10;99.90;;;;;;5009615;28;19916;-69
2023/04/29 09:42:58;;;;;;;;;;;12.20;99.90;;;;;;5045131;28;19920;-69
2023/04/29 09:45:33;;;;;;;;;;;12.40;99.90;;;;;;4993586;28;19914;-69
2023/04/29 09:48:04;;;;;;;;;;;12.40;99.90;;;;;;4997788;28;19939;-70
2023/04/29 09:50:31;;;;;;;;;;;12.40;99.90;;;;;;5011827;28;19913;-69
2023/04/29 09:52:57;;;;;;;;;;;12.40;99.90;;;;;;4995969;28;19937;-70
2023/04/29 09:55:23;;;;;;;;;;;12.60;99.90;;;;;;5015660;28;19909;-72
2023/04/29 09:57:48;;;;;;;;;;;12.50;99.90;;;;;;5011130;28;20013;-74
2023/04/29 10:00:14;;;;;;;;;;;12.60;99.90;;;;;;5012073;28;19921;-73
2023/04/29 12:58:49;;;;;;;;;;;23.10;60.70;;;;;;4968928;28;19930;-72
2023/04/29 13:01:15;;;;;;;;;;;23.30;59.40;;;;;;4968999;28;19914;-72
2023/04/29 13:03:41;;;;;;;;;;;22.90;62.50;;;;;;4967350;28;19936;-73
2023/04/29 13:06:07;;;;;;;;;;;22.90;58.90;;;;;;4971260;28;19973;-71
2023/04/29 13:08:33;;;;;;;;;;;22.70;62.10;;;;;;4971326;28;19937;-73
2023/04/29 13:10:58;;;;;;;;;;;22.60;58.60;;;;;;4975405;28;20373;-71
2023/04/29 13:13:24;;;;;;;;;;;22.00;58.80;;;;;;4951700;28;19933;-72
2023/04/29 13:15:50;;;;;;;;;;;21.80;61.10;;;;;;4968129;28;20432;-71
2023/04/29 13:18:15;;;;;;;;;;;22.20;58.30;;;;;;4973630;28;19918;-71
2023/04/29 13:20:41;;;;;;;;;;;22.60;56.50;;;;;;4966389;28;19977;-70
2023/04/29 13:23:07;;;;;;;;;;;23.10;59.50;;;;;;4969826;28;21340;-73
2023/04/29 13:25:32;;;;;;;;;;;23.30;53.60;;;;;;4967451;28;19957;-68
2023/04/29 13:27:58;;;;;;;;;;;23.70;52.50;;;;;;4973881;28;19910;-73
2023/04/29 13:30:23;;;;;;;;;;;23.70;51.40;;;;;;4972687;28;19913;-71
2023/04/29 13:32:49;;;;;;;;;;;24.00;50.70;;;;;;4970604;28;20373;-73
2023/04/29 13:35:15;;;;;;;;;;;24.20;53.30;;;;;;4969436;28;20463;-74
2023/04/29 13:37:41;;;;;;;;;;;24.10;50.90;;;;;;4973893;28;19913;-70
2023/04/29 13:40:06;;;;;;;;;;;24.40;50.80;;;;;;4970177;28;19958;-71
2023/04/29 13:42:32;;;;;;;;;;;25.20;50.30;;;;;;4966751;28;19981;-71
2023/04/29 13:44:58;;;;;;;;;;;25.90;47.60;;;;;;4955146;28;19961;-72
2023/04/29 13:47:23;;;;;;;;;;;25.80;49.60;;;;;;4970282;28;19992;-73
2023/04/29 13:49:49;;;;;;;;;;;26.00;47.30;;;;;;4976017;28;20338;-73
2023/04/29 13:52:14;;;;;;;;;;;26.30;45.70;;;;;;4974669;28;19914;-71
2023/04/29 13:54:40;;;;;;;;;;;26.20;47.00;;;;;;4974082;28;20404;-74
2023/04/29 13:57:06;;;;;;;;;;;26.10;46.50;;;;;;4952682;28;20313;-73
2023/04/29 13:59:32;;;;;;;;;;;25.60;47.40;;;;;;4970209;28;19913;-74
2023/04/29 14:01:58;;;;;;;;;;;24.70;52.10;;;;;;4972461;28;20375;-74
2023/04/29 14:04:28;;;;;;;;;;;23.50;51.00;;;;;;4973212;28;19914;-73
2023/04/29 14:06:54;;;;;;;;;;;22.10;53.00;;;;;;4965314;28;19964;-72
2023/04/29 14:09:21;;;;;;;;;;;20.50;55.80;;;;;;4965795;28;20365;-70
2023/04/29 14:11:47;;;;;;;;;;;19.80;57.80;;;;;;4972704;28;19925;-70
2023/04/29 14:14:12;;;;;;;;;;;19.20;58.60;;;;;;4980382;28;19917;-69
2023/04/29 14:16:38;;;;;;;;;;;18.70;59.60;;;;;;4974413;28;19988;-70
2023/04/29 14:19:04;;;;;;;;;;;18.30;61.70;;;;;;4972412;28;19949;-71
2023/04/29 14:21:31;;;;;;;;;;;18.00;61.60;;;;;;4972169;28;19910;-72
2023/04/29 14:23:58;;;;;;;;;;;17.80;62.50;;;;;;4970300;28;20013;-69
2023/04/29 14:26:24;;;;;;;;;;;17.40;63.20;;;;;;4972703;28;19933;-72
2023/04/29 14:28:56;;;;;;;;;;;17.50;62.90;;;;;;4971545;28;19919;-73
2023/04/29 14:31:26;;;;;;;;;;;17.60;64.60;;;;;;4959959;28;20366;-73
2023/04/29 14:33:52;;;;;;;;;;;17.40;64.20;;;;;;4970060;28;19930;-72
2023/04/29 14:36:18;;;;;;;;;;;17.30;62.90;;;;;;4973539;28;19964;-71
2023/04/29 14:38:44;;;;;;;;;;;17.30;63.60;;;;;;4973823;28;19922;-71
2023/04/29 14:41:10;;;;;;;;;;;17.10;63.30;;;;;;4974669;28;20369;-71
2023/04/29 14:43:35;;;;;;;;;;;16.80;64.20;;;;;;4968518;28;19914;-70
2023/04/29 14:46:01;;;;;;;;;;;16.70;65.40;;;;;;4968596;28;19937;-72
2023/04/29 14:48:27;;;;;;;;;;;16.50;71.90;;;;;;4967857;28;20003;-71
2023/04/29 14:50:53;;;;;;;;;;;16.50;67.90;;;;;;4968769;28;20048;-69
2023/04/29 14:53:20;;;;;;;;;;;16.50;68.20;;;;;;4968947;28;19991;-71
2023/04/29 14:55:48;;;;;;;;;;;16.40;69.60;;;;;;4953881;28;20281;-75
2023/04/29 14:58:13;;;;;;;;;;;16.30;69.90;;;;;;4961687;28;19918;-70
2023/04/29 15:00:39;;;;;;;;;;;16.10;71.40;;;;;;4966438;28;19917;-68
2023/04/29 15:03:06;;;;;;;;;;;15.80;70.80;;;;;;4961161;28;20008;-71
2023/04/29 15:05:31;;;;;;;;;;;15.50;72.20;;;;;;4965498;28;20067;-71
2023/04/29 15:07:59;;;;;;;;;;;15.40;74.00;;;;;;4967023;28;19910;-71
2023/04/29 15:10:25;;;;;;;;;;;15.60;74.80;;;;;;4968906;28;20448;-70
2023/04/29 15:12:51;;;;;;;;;;;15.90;74.90;;;;;;4967181;28;19974;-72
2023/04/29 15:15:18;;;;;;;;;;;16.00;75.50;;;;;;4970606;28;19922;-69
2023/04/29 15:17:44;;;;;;;;;;;15.70;76.90;;;;;;4970165;28;19969;-70
2023/04/29 15:20:17;;;;;;;;;;;15.90;77.80;;;;;;4966141;28;19917;-70
2023/04/29 15:22:42;;;;;;;;;;;17.40;74.10;;;;;;4966371;28;20049;-71
2023/04/29 15:25:08;;;;;;;;;;;19.40;69.90;;;;;;4974991;28;20411;-71
2023/04/29 15:27:34;;;;;;;;;;;19.70;66.80;;;;;;4971201;28;20024;-72
2023/04/29 15:30:00;;;;;;;;;;;19.60;65.80;;;;;;4966882;28;19969;-71
2023/04/29 15:32:30;;;;;;;;;;;18.90;67.30;;;;;;4965057;28;19926;-72
2023/04/29 15:35:05;;;;;;;;;;;17.90;70.00;;;;;;4959515;28;19910;-71
2023/04/29 15:37:31;;;;;;;;;;;16.90;72.10;;;;;;4969307;28;19953;-71
2023/04/29 15:39:57;;;;;;;;;;;16.30;73.70;;;;;;4962616;28;20004;-71
2023/04/29 15:42:23;;;;;;;;;;;15.70;76.20;;;;;;4967959;28;19918;-71
2023/04/29 15:44:49;;;;;;;;;;;15.40;79.80;;;;;;4955445;28;19918;-72
2023/04/29 15:47:15;;;;;;;;;;;15.00;80.50;;;;;;4974461;28;19910;-70
2023/04/29 15:49:41;;;;;;;;;;;14.90;81.90;;;;;;4976009;28;19989;-70
2023/04/29 15:52:07;;;;;;;;;;;14.70;84.00;;;;;;4974791;28;19949;-70
2023/04/29 15:54:32;;;;;;;;;;;14.50;85.50;;;;;;4972421;28;19981;-71
2023/04/29 15:56:58;;;;;;;;;;;14.30;87.10;;;;;;4971161;28;19910;-72
2023/04/29 15:59:24;;;;;;;;;;;14.30;89.10;;;;;;4974336;28;20349;-71
2023/04/29 16:01:50;;;;;;;;;;;14.10;88.90;;;;;;4973668;28;19953;-71
2023/04/29 16:04:17;;;;;;;;;;;14.10;91.60;;;;;;4970589;28;20419;-71
2023/04/29 16:06:42;;;;;;;;;;;14.00;90.60;;;;;;4975622;28;19980;-71
2023/04/29 16:09:08;;;;;;;;;;;13.80;90.40;;;;;;4973434;28;20516;-71
2023/04/29 16:11:34;;;;;;;;;;;13.70;89.80;;;;;;4970071;28;20366;-72
2023/04/29 16:13:59;;;;;;;;;;;13.60;90.50;;;;;;4968048;28;19937;-70
2023/04/29 16:16:25;;;;;;;;;;;13.60;89.50;;;;;;4954195;28;19910;-70
2023/04/29 16:18:50;;;;;;;;;;;13.40;88.40;;;;;;4974454;28;19914;-71
2023/04/29 16:21:16;;;;;;;;;;;13.50;88.60;;;;;;4971267;28;19925;-71
2023/04/29 16:23:42;;;;;;;;;;;13.60;90.10;;;;;;4978533;28;19918;-70
2023/04/29 16:26:08;;;;;;;;;;;13.50;91.60;;;;;;4969875;28;19918;-70
2023/04/29 16:28:33;;;;;;;;;;;13.50;92.00;;;;;;4972775;28;19914;-71
2023/04/29 16:30:59;;;;;;;;;;;13.50;92.40;;;;;;4971643;28;20012;-70
2023/04/29 16:33:25;;;;;;;;;;;13.50;92.40;;;;;;4975788;28;19968;-70
2023/04/29 16:35:50;;;;;;;;;;;13.50;92.30;;;;;;4972488;28;20388;-70
2023/04/29 16:38:16;;;;;;;;;;;13.50;91.90;;;;;;4973727;28;19910;-69
2023/04/29 16:40:42;;;;;;;;;;;13.40;92.30;;;;;;4973741;28;20321;-73
2023/04/29 16:43:07;;;;;;;;;;;13.40;92.50;;;;;;4972993;28;19937;-70
2023/04/29 16:45:33;;;;;;;;;;;13.40;93.30;;;;;;4974316;28;20663;-68
2023/04/29 16:48:00;;;;;;;;;;;13.30;92.70;;;;;;4977180;28;20289;-68
2023/04/29 16:50:26;;;;;;;;;;;13.20;93.70;;;;;;4973297;28;20017;-71
2023/04/29 16:52:51;;;;;;;;;;;13.20;92.20;;;;;;4977338;28;20404;-70
2023/04/29 16:55:17;;;;;;;;;;;13.10;92.10;;;;;;4971549;28;19958;-70
2023/04/29 16:57:43;;;;;;;;;;;13.10;92.70;;;;;;4972242;28;20608;-69
2023/04/29 17:00:09;;;;;;;;;;;13.10;91.30;;;;;;4974085;28;20448;-70
2023/04/29 17:02:36;;;;;;;;;;;13.00;91.80;;;;;;4970237;28;19965;-71
2023/04/29 17:05:02;;;;;;;;;;;12.90;91.50;;;;;;4977374;28;19945;-69
2023/04/29 17:07:29;;;;;;;;;;;12.80;91.00;;;;;;4968773;28;19910;-72
2023/04/29 17:09:55;;;;;;;;;;;12.70;90.40;;;;;;4975336;28;20277;-72
2023/04/29 17:12:20;;;;;;;;;;;12.50;90.80;;;;;;4970914;28;19921;-72
2023/04/29 17:14:47;;;;;;;;;;;12.50;91.30;;;;;;4966383;28;20409;-71